<?xml version="1.0" encoding="UTF-8" standalone="no" ?>
<gpx xmlns="http://www.topografix.com/GPX/1/1" xmlns:xsi="http://www.w3.org/2001/XMLSchema-instance" xsi:schemaLocation="http://www.topografix.com/GPX/1/1 http://www.topografix.com/GPX/1/1/gpx.xsd" version="1.1" creator="VisuGPX - https://www.visugpx.com">
  <metadata>
    <name>Préparation Boucieu le Roy 201905 (boucle du Cédron) (Randonnée Pédestre)</name>
    <desc><![CDATA[Préparation Boucieu le Roy 201905 (boucle du Cédron) (Randonnée Pédestre)]]></desc>
  </metadata>
  <trk>
    <name><![CDATA[1049405-Boucle du Cédron]]></name>
    <trkseg>
      <trkpt lat="45.03513" lon="4.68225">
        <ele>306</ele>
        <time>2019-02-15T10:22:26Z</time>
      </trkpt>
      <trkpt lat="45.0353" lon="4.68263">
        <ele>306</ele>
        <time>2019-02-15T10:23:26Z</time>
      </trkpt>
      <trkpt lat="45.03537" lon="4.68298">
        <ele>304</ele>
        <time>2019-02-15T10:24:26Z</time>
      </trkpt>
      <trkpt lat="45.03543" lon="4.68305">
        <ele>304</ele>
        <time>2019-02-15T10:25:26Z</time>
      </trkpt>
      <trkpt lat="45.03543" lon="4.68305">
        <ele>304</ele>
        <time>2019-02-15T10:26:26Z</time>
      </trkpt>
      <trkpt lat="45.03533" lon="4.68328">
        <ele>303</ele>
        <time>2019-02-15T10:27:26Z</time>
      </trkpt>
      <trkpt lat="45.03503" lon="4.68364">
        <ele>302</ele>
        <time>2019-02-15T10:28:26Z</time>
      </trkpt>
      <trkpt lat="45.03495" lon="4.68386">
        <ele>302</ele>
        <time>2019-02-15T10:29:26Z</time>
      </trkpt>
      <trkpt lat="45.03485" lon="4.68458">
        <ele>300</ele>
        <time>2019-02-15T10:30:26Z</time>
      </trkpt>
      <trkpt lat="45.03484" lon="4.68491">
        <ele>299</ele>
        <time>2019-02-15T10:31:26Z</time>
      </trkpt>
      <trkpt lat="45.03488" lon="4.68528">
        <ele>298</ele>
        <time>2019-02-15T10:32:26Z</time>
      </trkpt>
      <trkpt lat="45.03484" lon="4.68558">
        <ele>298</ele>
        <time>2019-02-15T10:33:26Z</time>
      </trkpt>
      <trkpt lat="45.03466" lon="4.68602">
        <ele>300</ele>
        <time>2019-02-15T10:34:26Z</time>
      </trkpt>
      <trkpt lat="45.0346" lon="4.68628">
        <ele>301</ele>
        <time>2019-02-15T10:35:26Z</time>
      </trkpt>
      <trkpt lat="45.0346" lon="4.68628">
        <ele>301</ele>
        <time>2019-02-15T10:36:26Z</time>
      </trkpt>
      <trkpt lat="45.03463" lon="4.68664">
        <ele>299</ele>
        <time>2019-02-15T10:37:26Z</time>
      </trkpt>
      <trkpt lat="45.03461" lon="4.68738">
        <ele>303</ele>
        <time>2019-02-15T10:38:26Z</time>
      </trkpt>
      <trkpt lat="45.03452" lon="4.68782">
        <ele>305</ele>
        <time>2019-02-15T10:39:26Z</time>
      </trkpt>
      <trkpt lat="45.03432" lon="4.6883">
        <ele>309</ele>
        <time>2019-02-15T10:40:26Z</time>
      </trkpt>
      <trkpt lat="45.03426" lon="4.6886">
        <ele>313</ele>
        <time>2019-02-15T10:41:26Z</time>
      </trkpt>
      <trkpt lat="45.03434" lon="4.6889">
        <ele>313</ele>
        <time>2019-02-15T10:42:26Z</time>
      </trkpt>
      <trkpt lat="45.03468" lon="4.68967">
        <ele>303</ele>
        <time>2019-02-15T10:43:26Z</time>
      </trkpt>
      <trkpt lat="45.03473" lon="4.6899">
        <ele>301</ele>
        <time>2019-02-15T10:44:26Z</time>
      </trkpt>
      <trkpt lat="45.03473" lon="4.6899">
        <ele>301</ele>
        <time>2019-02-15T10:45:26Z</time>
      </trkpt>
      <trkpt lat="45.03506" lon="4.68999">
        <ele>291</ele>
        <time>2019-02-15T10:46:26Z</time>
      </trkpt>
      <trkpt lat="45.03506" lon="4.68999">
        <ele>291</ele>
        <time>2019-02-15T10:47:26Z</time>
      </trkpt>
      <trkpt lat="45.03541" lon="4.68994">
        <ele>286</ele>
        <time>2019-02-15T10:48:26Z</time>
      </trkpt>
      <trkpt lat="45.0355" lon="4.69">
        <ele>284</ele>
        <time>2019-02-15T10:49:26Z</time>
      </trkpt>
      <trkpt lat="45.03564" lon="4.69021">
        <ele>283</ele>
        <time>2019-02-15T10:50:26Z</time>
      </trkpt>
      <trkpt lat="45.03528" lon="4.69015">
        <ele>288</ele>
        <time>2019-02-15T10:51:26Z</time>
      </trkpt>
      <trkpt lat="45.03472" lon="4.69049">
        <ele>296</ele>
        <time>2019-02-15T10:52:26Z</time>
      </trkpt>
      <trkpt lat="45.03457" lon="4.69072">
        <ele>296</ele>
        <time>2019-02-15T10:53:26Z</time>
      </trkpt>
      <trkpt lat="45.03465" lon="4.6909">
        <ele>295</ele>
        <time>2019-02-15T10:54:26Z</time>
      </trkpt>
      <trkpt lat="45.03503" lon="4.69069">
        <ele>291</ele>
        <time>2019-02-15T10:55:26Z</time>
      </trkpt>
      <trkpt lat="45.0356" lon="4.69073">
        <ele>285</ele>
        <time>2019-02-15T10:56:26Z</time>
      </trkpt>
      <trkpt lat="45.0357" lon="4.69068">
        <ele>284</ele>
        <time>2019-02-15T10:57:26Z</time>
      </trkpt>
      <trkpt lat="45.03621" lon="4.69065">
        <ele>275</ele>
        <time>2019-02-15T10:58:26Z</time>
      </trkpt>
      <trkpt lat="45.03635" lon="4.69071">
        <ele>273</ele>
        <time>2019-02-15T10:59:26Z</time>
      </trkpt>
      <trkpt lat="45.03635" lon="4.69071">
        <ele>273</ele>
        <time>2019-02-15T11:00:26Z</time>
      </trkpt>
      <trkpt lat="45.03587" lon="4.69082">
        <ele>282</ele>
        <time>2019-02-15T11:01:26Z</time>
      </trkpt>
      <trkpt lat="45.03587" lon="4.69093">
        <ele>285</ele>
        <time>2019-02-15T11:02:26Z</time>
      </trkpt>
      <trkpt lat="45.03632" lon="4.69129">
        <ele>282</ele>
        <time>2019-02-15T11:03:26Z</time>
      </trkpt>
      <trkpt lat="45.03625" lon="4.69136">
        <ele>286</ele>
        <time>2019-02-15T11:04:26Z</time>
      </trkpt>
      <trkpt lat="45.03603" lon="4.69136">
        <ele>293</ele>
        <time>2019-02-15T11:05:26Z</time>
      </trkpt>
      <trkpt lat="45.03596" lon="4.69148">
        <ele>299</ele>
        <time>2019-02-15T11:06:26Z</time>
      </trkpt>
      <trkpt lat="45.0358" lon="4.69137">
        <ele>301</ele>
        <time>2019-02-15T11:07:26Z</time>
      </trkpt>
      <trkpt lat="45.03574" lon="4.69138">
        <ele>302</ele>
        <time>2019-02-15T11:08:26Z</time>
      </trkpt>
      <trkpt lat="45.03577" lon="4.69158">
        <ele>308</ele>
        <time>2019-02-15T11:09:26Z</time>
      </trkpt>
      <trkpt lat="45.03606" lon="4.69223">
        <ele>312</ele>
        <time>2019-02-15T11:10:26Z</time>
      </trkpt>
      <trkpt lat="45.03604" lon="4.69228">
        <ele>315</ele>
        <time>2019-02-15T11:11:26Z</time>
      </trkpt>
      <trkpt lat="45.03592" lon="4.69223">
        <ele>321</ele>
        <time>2019-02-15T11:12:26Z</time>
      </trkpt>
      <trkpt lat="45.03586" lon="4.69241">
        <ele>330</ele>
        <time>2019-02-15T11:13:26Z</time>
      </trkpt>
      <trkpt lat="45.03574" lon="4.69241">
        <ele>334</ele>
        <time>2019-02-15T11:14:26Z</time>
      </trkpt>
      <trkpt lat="45.03572" lon="4.69261">
        <ele>340</ele>
        <time>2019-02-15T11:15:26Z</time>
      </trkpt>
      <trkpt lat="45.0356" lon="4.69257">
        <ele>343</ele>
        <time>2019-02-15T11:16:26Z</time>
      </trkpt>
      <trkpt lat="45.03552" lon="4.6927">
        <ele>348</ele>
        <time>2019-02-15T11:17:26Z</time>
      </trkpt>
      <trkpt lat="45.03569" lon="4.69343">
        <ele>361</ele>
        <time>2019-02-15T11:18:26Z</time>
      </trkpt>
      <trkpt lat="45.03583" lon="4.6938">
        <ele>365</ele>
        <time>2019-02-15T11:19:26Z</time>
      </trkpt>
      <trkpt lat="45.03604" lon="4.6942">
        <ele>360</ele>
        <time>2019-02-15T11:20:26Z</time>
      </trkpt>
      <trkpt lat="45.03597" lon="4.69452">
        <ele>372</ele>
        <time>2019-02-15T11:21:26Z</time>
      </trkpt>
      <trkpt lat="45.03597" lon="4.69469">
        <ele>375</ele>
        <time>2019-02-15T11:22:26Z</time>
      </trkpt>
      <trkpt lat="45.03612" lon="4.6953">
        <ele>379</ele>
        <time>2019-02-15T11:23:26Z</time>
      </trkpt>
      <trkpt lat="45.03628" lon="4.69548">
        <ele>375</ele>
        <time>2019-02-15T11:24:26Z</time>
      </trkpt>
      <trkpt lat="45.03639" lon="4.69571">
        <ele>375</ele>
        <time>2019-02-15T11:25:26Z</time>
      </trkpt>
      <trkpt lat="45.0364" lon="4.69597">
        <ele>380</ele>
        <time>2019-02-15T11:26:26Z</time>
      </trkpt>
      <trkpt lat="45.03633" lon="4.69622">
        <ele>387</ele>
        <time>2019-02-15T11:27:26Z</time>
      </trkpt>
      <trkpt lat="45.0365" lon="4.69646">
        <ele>386</ele>
        <time>2019-02-15T11:28:26Z</time>
      </trkpt>
      <trkpt lat="45.03651" lon="4.69669">
        <ele>391</ele>
        <time>2019-02-15T11:29:26Z</time>
      </trkpt>
      <trkpt lat="45.03637" lon="4.69694">
        <ele>396</ele>
        <time>2019-02-15T11:30:26Z</time>
      </trkpt>
      <trkpt lat="45.03631" lon="4.69725">
        <ele>401</ele>
        <time>2019-02-15T11:31:26Z</time>
      </trkpt>
      <trkpt lat="45.03637" lon="4.69762">
        <ele>403</ele>
        <time>2019-02-15T11:32:26Z</time>
      </trkpt>
      <trkpt lat="45.03621" lon="4.69799">
        <ele>411</ele>
        <time>2019-02-15T11:33:26Z</time>
      </trkpt>
      <trkpt lat="45.03621" lon="4.69799">
        <ele>411</ele>
        <time>2019-02-15T11:34:26Z</time>
      </trkpt>
      <trkpt lat="45.03616" lon="4.69918">
        <ele>419</ele>
        <time>2019-02-15T11:35:26Z</time>
      </trkpt>
      <trkpt lat="45.03621" lon="4.69958">
        <ele>416</ele>
        <time>2019-02-15T11:36:26Z</time>
      </trkpt>
      <trkpt lat="45.03618" lon="4.69993">
        <ele>414</ele>
        <time>2019-02-15T11:37:26Z</time>
      </trkpt>
      <trkpt lat="45.03622" lon="4.7003">
        <ele>411</ele>
        <time>2019-02-15T11:38:26Z</time>
      </trkpt>
      <trkpt lat="45.03619" lon="4.7004">
        <ele>410</ele>
        <time>2019-02-15T11:39:26Z</time>
      </trkpt>
      <trkpt lat="45.03609" lon="4.70051">
        <ele>411</ele>
        <time>2019-02-15T11:40:26Z</time>
      </trkpt>
      <trkpt lat="45.03573" lon="4.70064">
        <ele>417</ele>
        <time>2019-02-15T11:41:26Z</time>
      </trkpt>
      <trkpt lat="45.03563" lon="4.70076">
        <ele>417</ele>
        <time>2019-02-15T11:42:26Z</time>
      </trkpt>
      <trkpt lat="45.03557" lon="4.70158">
        <ele>420</ele>
        <time>2019-02-15T11:43:26Z</time>
      </trkpt>
      <trkpt lat="45.03542" lon="4.70184">
        <ele>424</ele>
        <time>2019-02-15T11:44:26Z</time>
      </trkpt>
      <trkpt lat="45.03546" lon="4.70196">
        <ele>425</ele>
        <time>2019-02-15T11:45:26Z</time>
      </trkpt>
      <trkpt lat="45.03566" lon="4.70207">
        <ele>425</ele>
        <time>2019-02-15T11:46:26Z</time>
      </trkpt>
      <trkpt lat="45.03628" lon="4.70208">
        <ele>420</ele>
        <time>2019-02-15T11:47:26Z</time>
      </trkpt>
      <trkpt lat="45.03661" lon="4.70218">
        <ele>419</ele>
        <time>2019-02-15T11:48:26Z</time>
      </trkpt>
      <trkpt lat="45.03688" lon="4.70268">
        <ele>427</ele>
        <time>2019-02-15T11:49:26Z</time>
      </trkpt>
      <trkpt lat="45.03707" lon="4.70277">
        <ele>428</ele>
        <time>2019-02-15T11:50:26Z</time>
      </trkpt>
      <trkpt lat="45.03731" lon="4.70278">
        <ele>427</ele>
        <time>2019-02-15T11:51:26Z</time>
      </trkpt>
      <trkpt lat="45.03779" lon="4.70264">
        <ele>424</ele>
        <time>2019-02-15T11:52:26Z</time>
      </trkpt>
      <trkpt lat="45.03806" lon="4.70305">
        <ele>432</ele>
        <time>2019-02-15T11:53:26Z</time>
      </trkpt>
      <trkpt lat="45.03812" lon="4.70307">
        <ele>432</ele>
        <time>2019-02-15T11:54:26Z</time>
      </trkpt>
      <trkpt lat="45.03822" lon="4.70304">
        <ele>432</ele>
        <time>2019-02-15T11:55:26Z</time>
      </trkpt>
      <trkpt lat="45.03849" lon="4.7028">
        <ele>430</ele>
        <time>2019-02-15T11:56:26Z</time>
      </trkpt>
      <trkpt lat="45.03891" lon="4.70265">
        <ele>432</ele>
        <time>2019-02-15T11:57:26Z</time>
      </trkpt>
      <trkpt lat="45.03891" lon="4.70265">
        <ele>432</ele>
        <time>2019-02-15T11:58:26Z</time>
      </trkpt>
      <trkpt lat="45.03956" lon="4.70266">
        <ele>434</ele>
        <time>2019-02-15T11:59:26Z</time>
      </trkpt>
      <trkpt lat="45.03963" lon="4.7024">
        <ele>431</ele>
        <time>2019-02-15T12:00:26Z</time>
      </trkpt>
      <trkpt lat="45.03992" lon="4.70185">
        <ele>425</ele>
        <time>2019-02-15T12:01:26Z</time>
      </trkpt>
      <trkpt lat="45.03993" lon="4.70155">
        <ele>423</ele>
        <time>2019-02-15T12:02:26Z</time>
      </trkpt>
      <trkpt lat="45.03985" lon="4.70132">
        <ele>421</ele>
        <time>2019-02-15T12:03:26Z</time>
      </trkpt>
      <trkpt lat="45.03983" lon="4.70099">
        <ele>418</ele>
        <time>2019-02-15T12:04:26Z</time>
      </trkpt>
      <trkpt lat="45.03965" lon="4.70039">
        <ele>413</ele>
        <time>2019-02-15T12:05:26Z</time>
      </trkpt>
      <trkpt lat="45.03964" lon="4.7002">
        <ele>412</ele>
        <time>2019-02-15T12:06:26Z</time>
      </trkpt>
      <trkpt lat="45.03969" lon="4.70008">
        <ele>411</ele>
        <time>2019-02-15T12:07:26Z</time>
      </trkpt>
      <trkpt lat="45.03996" lon="4.69981">
        <ele>408</ele>
        <time>2019-02-15T12:08:26Z</time>
      </trkpt>
      <trkpt lat="45.04002" lon="4.69963">
        <ele>404</ele>
        <time>2019-02-15T12:09:26Z</time>
      </trkpt>
      <trkpt lat="45.04001" lon="4.69942">
        <ele>400</ele>
        <time>2019-02-15T12:10:26Z</time>
      </trkpt>
      <trkpt lat="45.0399" lon="4.69907">
        <ele>395</ele>
        <time>2019-02-15T12:11:26Z</time>
      </trkpt>
      <trkpt lat="45.03967" lon="4.69881">
        <ele>390</ele>
        <time>2019-02-15T12:12:26Z</time>
      </trkpt>
      <trkpt lat="45.03954" lon="4.69837">
        <ele>381</ele>
        <time>2019-02-15T12:13:26Z</time>
      </trkpt>
      <trkpt lat="45.03961" lon="4.69833">
        <ele>380</ele>
        <time>2019-02-15T12:14:26Z</time>
      </trkpt>
      <trkpt lat="45.04038" lon="4.69869">
        <ele>375</ele>
        <time>2019-02-15T12:15:26Z</time>
      </trkpt>
      <trkpt lat="45.04046" lon="4.69868">
        <ele>373</ele>
        <time>2019-02-15T12:16:26Z</time>
      </trkpt>
      <trkpt lat="45.04025" lon="4.69731">
        <ele>346</ele>
        <time>2019-02-15T12:17:26Z</time>
      </trkpt>
      <trkpt lat="45.04136" lon="4.6976">
        <ele>313</ele>
        <time>2019-02-15T12:18:26Z</time>
      </trkpt>
      <trkpt lat="45.0411" lon="4.69716">
        <ele>313</ele>
        <time>2019-02-15T12:19:26Z</time>
      </trkpt>
      <trkpt lat="45.04109" lon="4.69688">
        <ele>306</ele>
        <time>2019-02-15T12:20:26Z</time>
      </trkpt>
      <trkpt lat="45.04129" lon="4.69676">
        <ele>297</ele>
        <time>2019-02-15T12:21:26Z</time>
      </trkpt>
      <trkpt lat="45.04172" lon="4.69765">
        <ele>299</ele>
        <time>2019-02-15T12:22:26Z</time>
      </trkpt>
      <trkpt lat="45.04202" lon="4.69818">
        <ele>296</ele>
        <time>2019-02-15T12:23:26Z</time>
      </trkpt>
      <trkpt lat="45.04211" lon="4.69814">
        <ele>291</ele>
        <time>2019-02-15T12:24:26Z</time>
      </trkpt>
      <trkpt lat="45.04264" lon="4.69928">
        <ele>291</ele>
        <time>2019-02-15T12:25:26Z</time>
      </trkpt>
      <trkpt lat="45.04291" lon="4.69968">
        <ele>288</ele>
        <time>2019-02-15T12:26:26Z</time>
      </trkpt>
      <trkpt lat="45.04295" lon="4.69956">
        <ele>284</ele>
        <time>2019-02-15T12:27:26Z</time>
      </trkpt>
      <trkpt lat="45.04298" lon="4.69912">
        <ele>275</ele>
        <time>2019-02-15T12:28:26Z</time>
      </trkpt>
      <trkpt lat="45.04278" lon="4.69802">
        <ele>266</ele>
        <time>2019-02-15T12:29:26Z</time>
      </trkpt>
      <trkpt lat="45.0426" lon="4.69747">
        <ele>265</ele>
        <time>2019-02-15T12:30:26Z</time>
      </trkpt>
      <trkpt lat="45.04264" lon="4.6974">
        <ele>264</ele>
        <time>2019-02-15T12:31:26Z</time>
      </trkpt>
      <trkpt lat="45.04275" lon="4.69736">
        <ele>262</ele>
        <time>2019-02-15T12:32:26Z</time>
      </trkpt>
      <trkpt lat="45.04275" lon="4.69736">
        <ele>262</ele>
        <time>2019-02-15T12:33:26Z</time>
      </trkpt>
      <trkpt lat="45.0428" lon="4.69725">
        <ele>261</ele>
        <time>2019-02-15T12:34:26Z</time>
      </trkpt>
      <trkpt lat="45.04272" lon="4.69672">
        <ele>261</ele>
        <time>2019-02-15T12:35:26Z</time>
      </trkpt>
      <trkpt lat="45.04272" lon="4.69672">
        <ele>261</ele>
        <time>2019-02-15T12:36:26Z</time>
      </trkpt>
      <trkpt lat="45.04273" lon="4.69646">
        <ele>260</ele>
        <time>2019-02-15T12:37:26Z</time>
      </trkpt>
      <trkpt lat="45.04285" lon="4.69618">
        <ele>259</ele>
        <time>2019-02-15T12:38:26Z</time>
      </trkpt>
      <trkpt lat="45.04284" lon="4.69603">
        <ele>259</ele>
        <time>2019-02-15T12:39:26Z</time>
      </trkpt>
      <trkpt lat="45.04277" lon="4.69592">
        <ele>259</ele>
        <time>2019-02-15T12:40:26Z</time>
      </trkpt>
      <trkpt lat="45.04247" lon="4.69564">
        <ele>257</ele>
        <time>2019-02-15T12:41:26Z</time>
      </trkpt>
      <trkpt lat="45.04218" lon="4.69551">
        <ele>258</ele>
        <time>2019-02-15T12:42:26Z</time>
      </trkpt>
      <trkpt lat="45.04125" lon="4.69482">
        <ele>254</ele>
        <time>2019-02-15T12:43:26Z</time>
      </trkpt>
      <trkpt lat="45.04123" lon="4.6944">
        <ele>253</ele>
        <time>2019-02-15T12:44:26Z</time>
      </trkpt>
      <trkpt lat="45.04111" lon="4.6937">
        <ele>256</ele>
        <time>2019-02-15T12:45:26Z</time>
      </trkpt>
      <trkpt lat="45.04111" lon="4.69313">
        <ele>262</ele>
        <time>2019-02-15T12:46:26Z</time>
      </trkpt>
      <trkpt lat="45.04111" lon="4.69313">
        <ele>262</ele>
        <time>2019-02-15T12:47:26Z</time>
      </trkpt>
      <trkpt lat="45.04059" lon="4.69327">
        <ele>262</ele>
        <time>2019-02-15T12:48:26Z</time>
      </trkpt>
      <trkpt lat="45.04008" lon="4.69332">
        <ele>266</ele>
        <time>2019-02-15T12:49:26Z</time>
      </trkpt>
      <trkpt lat="45.03947" lon="4.69374">
        <ele>265</ele>
        <time>2019-02-15T12:50:26Z</time>
      </trkpt>
      <trkpt lat="45.03925" lon="4.6938">
        <ele>265</ele>
        <time>2019-02-15T12:51:26Z</time>
      </trkpt>
      <trkpt lat="45.03904" lon="4.69377">
        <ele>265</ele>
        <time>2019-02-15T12:52:26Z</time>
      </trkpt>
      <trkpt lat="45.0381" lon="4.69322">
        <ele>267</ele>
        <time>2019-02-15T12:53:26Z</time>
      </trkpt>
      <trkpt lat="45.0381" lon="4.69322">
        <ele>267</ele>
        <time>2019-02-15T12:54:26Z</time>
      </trkpt>
      <trkpt lat="45.03793" lon="4.69298">
        <ele>266</ele>
        <time>2019-02-15T12:55:26Z</time>
      </trkpt>
      <trkpt lat="45.03784" lon="4.69269">
        <ele>266</ele>
        <time>2019-02-15T12:56:26Z</time>
      </trkpt>
      <trkpt lat="45.03786" lon="4.69236">
        <ele>266</ele>
        <time>2019-02-15T12:57:26Z</time>
      </trkpt>
      <trkpt lat="45.03794" lon="4.69205">
        <ele>267</ele>
        <time>2019-02-15T12:58:26Z</time>
      </trkpt>
      <trkpt lat="45.03794" lon="4.69205">
        <ele>267</ele>
        <time>2019-02-15T12:59:26Z</time>
      </trkpt>
      <trkpt lat="45.03811" lon="4.69162">
        <ele>268</ele>
        <time>2019-02-15T13:00:26Z</time>
      </trkpt>
      <trkpt lat="45.03858" lon="4.68994">
        <ele>263</ele>
        <time>2019-02-15T13:01:26Z</time>
      </trkpt>
      <trkpt lat="45.03898" lon="4.68881">
        <ele>265</ele>
        <time>2019-02-15T13:02:26Z</time>
      </trkpt>
      <trkpt lat="45.03902" lon="4.6886">
        <ele>265</ele>
        <time>2019-02-15T13:03:26Z</time>
      </trkpt>
      <trkpt lat="45.03902" lon="4.6886">
        <ele>265</ele>
        <time>2019-02-15T13:04:26Z</time>
      </trkpt>
      <trkpt lat="45.03914" lon="4.68807">
        <ele>264</ele>
        <time>2019-02-15T13:05:26Z</time>
      </trkpt>
      <trkpt lat="45.03982" lon="4.6859">
        <ele>275</ele>
        <time>2019-02-15T13:06:26Z</time>
      </trkpt>
      <trkpt lat="45.0404" lon="4.68432">
        <ele>277</ele>
        <time>2019-02-15T13:07:26Z</time>
      </trkpt>
      <trkpt lat="45.04058" lon="4.68357">
        <ele>276</ele>
        <time>2019-02-15T13:08:26Z</time>
      </trkpt>
      <trkpt lat="45.04093" lon="4.68268">
        <ele>282</ele>
        <time>2019-02-15T13:09:26Z</time>
      </trkpt>
      <trkpt lat="45.04112" lon="4.68128">
        <ele>286</ele>
        <time>2019-02-15T13:10:26Z</time>
      </trkpt>
      <trkpt lat="45.04104" lon="4.68023">
        <ele>282</ele>
        <time>2019-02-15T13:11:26Z</time>
      </trkpt>
      <trkpt lat="45.04105" lon="4.67994">
        <ele>284</ele>
        <time>2019-02-15T13:12:26Z</time>
      </trkpt>
      <trkpt lat="45.04095" lon="4.67969">
        <ele>281</ele>
        <time>2019-02-15T13:13:26Z</time>
      </trkpt>
      <trkpt lat="45.04083" lon="4.67902">
        <ele>283</ele>
        <time>2019-02-15T13:14:26Z</time>
      </trkpt>
      <trkpt lat="45.0407" lon="4.67864">
        <ele>287</ele>
        <time>2019-02-15T13:15:26Z</time>
      </trkpt>
      <trkpt lat="45.04037" lon="4.67826">
        <ele>282</ele>
        <time>2019-02-15T13:16:26Z</time>
      </trkpt>
      <trkpt lat="45.03986" lon="4.67729">
        <ele>282</ele>
        <time>2019-02-15T13:17:26Z</time>
      </trkpt>
      <trkpt lat="45.03924" lon="4.67671">
        <ele>280</ele>
        <time>2019-02-15T13:18:26Z</time>
      </trkpt>
      <trkpt lat="45.03871" lon="4.67637">
        <ele>281</ele>
        <time>2019-02-15T13:19:26Z</time>
      </trkpt>
      <trkpt lat="45.038" lon="4.67615">
        <ele>279</ele>
        <time>2019-02-15T13:20:26Z</time>
      </trkpt>
      <trkpt lat="45.038" lon="4.67615">
        <ele>279</ele>
        <time>2019-02-15T13:21:26Z</time>
      </trkpt>
      <trkpt lat="45.03735" lon="4.67611">
        <ele>276</ele>
        <time>2019-02-15T13:22:26Z</time>
      </trkpt>
      <trkpt lat="45.03735" lon="4.67611">
        <ele>276</ele>
        <time>2019-02-15T13:23:26Z</time>
      </trkpt>
      <trkpt lat="45.03643" lon="4.67604">
        <ele>274</ele>
        <time>2019-02-15T13:24:26Z</time>
      </trkpt>
      <trkpt lat="45.03643" lon="4.67604">
        <ele>274</ele>
        <time>2019-02-15T13:25:26Z</time>
      </trkpt>
      <trkpt lat="45.03635" lon="4.67625">
        <ele>270</ele>
        <time>2019-02-15T13:26:26Z</time>
      </trkpt>
      <trkpt lat="45.03579" lon="4.67707">
        <ele>268</ele>
        <time>2019-02-15T13:27:26Z</time>
      </trkpt>
      <trkpt lat="45.03512" lon="4.67749">
        <ele>273</ele>
        <time>2019-02-15T13:28:26Z</time>
      </trkpt>
      <trkpt lat="45.03505" lon="4.6776">
        <ele>273</ele>
        <time>2019-02-15T13:29:26Z</time>
      </trkpt>
      <trkpt lat="45.03501" lon="4.67796">
        <ele>275</ele>
        <time>2019-02-15T13:30:26Z</time>
      </trkpt>
      <trkpt lat="45.03506" lon="4.67835">
        <ele>276</ele>
        <time>2019-02-15T13:31:26Z</time>
      </trkpt>
      <trkpt lat="45.03496" lon="4.67858">
        <ele>278</ele>
        <time>2019-02-15T13:32:26Z</time>
      </trkpt>
      <trkpt lat="45.03472" lon="4.67889">
        <ele>282</ele>
        <time>2019-02-15T13:33:26Z</time>
      </trkpt>
      <trkpt lat="45.03468" lon="4.67901">
        <ele>283</ele>
        <time>2019-02-15T13:34:26Z</time>
      </trkpt>
      <trkpt lat="45.03469" lon="4.67932">
        <ele>286</ele>
        <time>2019-02-15T13:35:26Z</time>
      </trkpt>
      <trkpt lat="45.03486" lon="4.67991">
        <ele>292</ele>
        <time>2019-02-15T13:36:26Z</time>
      </trkpt>
      <trkpt lat="45.03486" lon="4.68026">
        <ele>296</ele>
        <time>2019-02-15T13:37:26Z</time>
      </trkpt>
      <trkpt lat="45.03479" lon="4.68072">
        <ele>301</ele>
        <time>2019-02-15T13:38:26Z</time>
      </trkpt>
      <trkpt lat="45.03461" lon="4.68144">
        <ele>304</ele>
        <time>2019-02-15T13:39:26Z</time>
      </trkpt>
      <trkpt lat="45.03461" lon="4.68144">
        <ele>304</ele>
        <time>2019-02-15T13:40:26Z</time>
      </trkpt>
      <trkpt lat="45.03467" lon="4.68153">
        <ele>305</ele>
        <time>2019-02-15T13:41:26Z</time>
      </trkpt>
      <trkpt lat="45.03467" lon="4.68153">
        <ele>305</ele>
        <time>2019-02-15T13:42:26Z</time>
      </trkpt>
      <trkpt lat="45.03513" lon="4.68225">
        <ele>306</ele>
        <time>2019-02-15T13:43:26Z</time>
      </trkpt>
    </trkseg>
  </trk>
</gpx>